createdAt,value
2023-03-16T00:00:55.348Z,99645.34
2023-03-16T00:01:57.678Z,99647.84
2023-03-16T00:02:59.668Z,99645.25
2023-03-16T00:04:02.186Z,99646.50
2023-03-16T00:05:04.215Z,99643.03
2023-03-16T00:06:06.406Z,99644.63
2023-03-16T00:07:11.409Z,99650.34
2023-03-16T00:08:14.076Z,99651.44
2023-03-16T00:09:15.953Z,99651.97
2023-03-16T00:10:18.043Z,99652.41
2023-03-16T00:11:20.021Z,99657.25
2023-03-16T00:12:22.676Z,99657.16
2023-03-16T00:13:25.214Z,99655.63
2023-03-16T00:14:27.171Z,99664.66
2023-03-16T00:15:29.853Z,99660.53
2023-03-16T00:16:32.124Z,99658.22
2023-03-16T00:17:34.873Z,99661.25
2023-03-16T00:18:38.888Z,99656.63
2023-03-16T00:19:46.889Z,99657.78
2023-03-16T00:21:02.157Z,99661.97
2023-03-16T00:22:04.071Z,99668.56
2023-03-16T00:23:06.235Z,99662.06
2023-03-16T00:24:09.058Z,99668.22
2023-03-16T00:25:14.426Z,99676.59
2023-03-16T00:26:16.499Z,99667.59
2023-03-16T00:27:18.492Z,99678.63
2023-03-16T00:28:21.928Z,99672.59
2023-03-16T00:29:23.847Z,99674.91
2023-03-16T00:30:27.312Z,99681.87
2023-03-16T00:31:29.322Z,99681.34
2023-03-16T00:32:34.516Z,99681.13
2023-03-16T00:33:36.724Z,99680.50
2023-03-16T00:34:40.565Z,99680.72
2023-03-16T00:35:49.918Z,99678.72
2023-03-16T00:36:52.046Z,99680.22
2023-03-16T00:37:57.359Z,99684.66
2023-03-16T00:39:00.019Z,99677.59
2023-03-16T00:40:01.914Z,99682.19
2023-03-16T00:41:05.786Z,99681.03
2023-03-16T00:42:09.397Z,99678.31
2023-03-16T00:43:11.343Z,99683.47
2023-03-16T00:44:13.581Z,99685.34
2023-03-16T00:45:15.597Z,99681.87
2023-03-16T00:46:18.299Z,99689.53
2023-03-16T00:47:20.262Z,99682.81
2023-03-16T00:48:24.492Z,99686.72
2023-03-16T00:49:26.776Z,99680.28
2023-03-16T00:50:29.390Z,99679.88
2023-03-16T00:51:33.958Z,99684.94
2023-03-16T00:52:36.055Z,99689.44
2023-03-16T00:53:37.935Z,99680.03
2023-03-16T00:54:42.833Z,99679.16
2023-03-16T00:55:44.908Z,99688.03
2023-03-16T00:56:46.940Z,99679.53
2023-03-16T00:57:49.530Z,99688.50
2023-03-16T00:58:57.618Z,99690.81
2023-03-16T01:00:01.685Z,99688.84
2023-03-16T01:01:06.094Z,99694.13
2023-03-16T01:02:09.270Z,99698.28
2023-03-16T01:03:11.264Z,99689.69
2023-03-16T01:04:13.976Z,99696.78
2023-03-16T01:05:16.263Z,99692.50
2023-03-16T01:06:20.590Z,99691.88
2023-03-16T01:07:23.138Z,99705.38
2023-03-16T01:08:28.101Z,99699.56
2023-03-16T01:09:30.098Z,99701.44
2023-03-16T01:10:33.721Z,99697.53
2023-03-16T01:11:35.659Z,99697.38
2023-03-16T01:12:37.708Z,99698.69
2023-03-16T01:13:40.467Z,99702.91
2023-03-16T01:14:45.891Z,99703.00
2023-03-16T01:15:51.265Z,99707.31
2023-03-16T01:16:53.253Z,99701.31
2023-03-16T01:17:55.499Z,99703.06
2023-03-16T01:18:57.677Z,99703.56
2023-03-16T01:19:59.595Z,99704.00
2023-03-16T01:21:03.532Z,99702.88
2023-03-16T01:22:09.910Z,99708.88
2023-03-16T01:23:13.029Z,99704.84
2023-03-16T01:24:14.904Z,99708.34
2023-03-16T01:25:18.378Z,99708.47
2023-03-16T01:26:22.566Z,99705.44
2023-03-16T01:27:26.299Z,99706.97
2023-03-16T01:28:30.310Z,99706.78
2023-03-16T01:29:33.108Z,99711.31
2023-03-16T01:30:35.816Z,99713.44
2023-03-16T01:31:39.217Z,99709.75
2023-03-16T01:32:42.005Z,99711.78
2023-03-16T01:33:47.260Z,99712.13
2023-03-16T01:34:49.661Z,99716.12
2023-03-16T01:35:56.786Z,99713.41
2023-03-16T01:37:00.015Z,99706.81
2023-03-16T01:38:02.429Z,99711.47
2023-03-16T01:39:05.133Z,99708.56
2023-03-16T01:40:09.081Z,99712.44
2023-03-16T01:41:12.071Z,99710.81
2023-03-16T01:42:14.454Z,99706.00
2023-03-16T01:43:16.525Z,99700.97
2023-03-16T01:44:24.329Z,99708.56
2023-03-16T01:45:57.462Z,99707.34
2023-03-16T01:46:59.673Z,99703.97
2023-03-16T01:48:01.887Z,99713.81
2023-03-16T01:49:35.978Z,99702.38
2023-03-16T01:50:38.152Z,99710.25
2023-03-16T01:51:56.376Z,99707.66
2023-03-16T01:52:58.932Z,99708.19
2023-03-16T01:54:15.093Z,99715.09
2023-03-16T01:55:18.375Z,99717.03
2023-03-16T01:56:27.488Z,99720.59
2023-03-16T01:57:37.443Z,99718.00
2023-03-16T01:58:41.860Z,99715.75
2023-03-16T01:59:59.091Z,99718.34
2023-03-16T02:01:01.482Z,99723.97
2023-03-16T02:02:04.127Z,99726.37
2023-03-16T02:03:13.871Z,99725.09
2023-03-16T02:04:38.013Z,99724.59
2023-03-16T02:05:50.331Z,99734.41
2023-03-16T02:06:54.519Z,99734.09
2023-03-16T02:07:59.202Z,99732.47
2023-03-16T02:09:02.582Z,99726.97
2023-03-16T02:10:06.883Z,99727.97
2023-03-16T02:11:09.800Z,99731.53
2023-03-16T02:12:18.343Z,99732.03
2023-03-16T02:13:22.766Z,99735.09
2023-03-16T02:14:24.930Z,99741.22
2023-03-16T02:15:27.462Z,99742.22
2023-03-16T02:16:29.446Z,99734.16
2023-03-16T02:17:34.052Z,99735.41
2023-03-16T02:18:36.656Z,99739.28
2023-03-16T02:19:38.849Z,99741.84
2023-03-16T02:20:52.328Z,99738.00
2023-03-16T02:22:03.388Z,99749.28
2023-03-16T02:23:08.884Z,99752.06
2023-03-16T02:24:11.186Z,99758.47
2023-03-16T02:25:17.044Z,99752.19
2023-03-16T02:26:31.957Z,99754.59
2023-03-16T02:27:39.905Z,99758.66
2023-03-16T02:28:52.503Z,99756.41
2023-03-16T02:30:11.798Z,99754.97
2023-03-16T02:31:17.213Z,99762.19
2023-03-16T02:32:21.524Z,99758.50
2023-03-16T02:33:25.339Z,99760.41
2023-03-16T02:34:28.521Z,99759.56
2023-03-16T02:35:31.379Z,99759.56
2023-03-16T02:36:34.602Z,99759.84
2023-03-16T02:37:36.620Z,99764.53
2023-03-16T02:38:39.040Z,99767.31
2023-03-16T02:39:44.105Z,99770.03
2023-03-16T02:40:58.192Z,99766.66
2023-03-16T02:42:02.172Z,99775.06
2023-03-16T02:43:09.433Z,99774.25
2023-03-16T02:44:24.345Z,99781.47
2023-03-16T02:45:33.561Z,99770.81
2023-03-16T02:46:36.978Z,99768.56
2023-03-16T02:47:43.931Z,99773.59
2023-03-16T02:49:07.075Z,99780.53
2023-03-16T02:50:12.554Z,99778.28
2023-03-16T02:51:16.018Z,99784.72
2023-03-16T02:52:18.261Z,99786.16
2023-03-16T02:53:21.708Z,99780.53
2023-03-16T02:54:24.515Z,99782.69
2023-03-16T02:55:26.843Z,99787.28
2023-03-16T02:56:28.903Z,99786.50
2023-03-16T02:57:31.766Z,99785.66
2023-03-16T02:58:34.844Z,99797.31
2023-03-16T02:59:39.618Z,99790.81
2023-03-16T03:00:45.620Z,99788.09
2023-03-16T03:01:48.694Z,99788.41
2023-03-16T03:02:52.611Z,99795.63
2023-03-16T03:03:54.604Z,99795.31
2023-03-16T03:04:56.624Z,99793.91
2023-03-16T03:06:01.675Z,99796.75
2023-03-16T03:07:05.489Z,99795.91
2023-03-16T03:08:08.590Z,99796.09
2023-03-16T03:09:13.414Z,99798.03
2023-03-16T03:10:15.999Z,99799.81
2023-03-16T03:11:21.449Z,99800.63
2023-03-16T03:12:23.540Z,99801.28
2023-03-16T03:13:25.603Z,99804.81
2023-03-16T03:14:28.568Z,99804.38
2023-03-16T03:15:30.463Z,99806.38
2023-03-16T03:16:33.322Z,99804.63
2023-03-16T03:17:35.296Z,99805.56
2023-03-16T03:18:37.449Z,99807.38
2023-03-16T03:19:39.363Z,99813.47
2023-03-16T03:20:41.569Z,99817.87
2023-03-16T03:21:45.203Z,99818.78
2023-03-16T03:22:52.778Z,99824.44
2023-03-16T03:23:55.021Z,99816.25
2023-03-16T03:24:56.924Z,99829.22
2023-03-16T03:25:59.906Z,99821.34
2023-03-16T03:27:05.975Z,99829.56
2023-03-16T03:28:11.444Z,99833.50
2023-03-16T03:29:13.575Z,99837.09
2023-03-16T03:30:21.825Z,99839.03
2023-03-16T03:31:23.794Z,99845.91
2023-03-16T03:32:26.363Z,99838.06
2023-03-16T03:33:29.010Z,99840.03
2023-03-16T03:34:32.779Z,99834.97
2023-03-16T03:35:34.894Z,99843.94
2023-03-16T03:36:36.854Z,99840.69
2023-03-16T03:37:42.511Z,99839.44
2023-03-16T03:38:44.453Z,99846.19
2023-03-16T03:39:48.388Z,99843.63
2023-03-16T03:40:52.063Z,99845.56
2023-03-16T03:41:54.660Z,99844.72
2023-03-16T03:42:57.031Z,99846.00
2023-03-16T03:44:00.419Z,99845.28
2023-03-16T03:45:03.130Z,99842.91
2023-03-16T03:46:05.341Z,99844.81
2023-03-16T03:47:07.798Z,99847.28
2023-03-16T03:48:10.265Z,99845.75
2023-03-16T03:49:12.551Z,99850.22
2023-03-16T03:50:14.596Z,99851.84
2023-03-16T03:51:17.922Z,99855.97
2023-03-16T03:52:19.993Z,99854.75
2023-03-16T03:53:23.562Z,99852.22
2023-03-16T03:54:27.764Z,99858.91
2023-03-16T03:55:30.033Z,99862.75
2023-03-16T03:56:31.950Z,99858.56
2023-03-16T03:57:34.262Z,99872.03
2023-03-16T03:58:36.975Z,99860.47
2023-03-16T03:59:43.608Z,99864.66
2023-03-16T04:00:45.962Z,99863.06
2023-03-16T04:01:49.158Z,99865.25
2023-03-16T04:02:51.622Z,99863.06
2023-03-16T04:03:54.266Z,99862.56
2023-03-16T04:04:56.243Z,99876.66
2023-03-16T04:05:58.357Z,99862.47
2023-03-16T04:07:01.837Z,99869.66
2023-03-16T04:08:04.318Z,99869.97
2023-03-16T04:09:06.192Z,99873.59
2023-03-16T04:10:09.390Z,99874.25
2023-03-16T04:11:12.013Z,99873.94
2023-03-16T04:12:14.541Z,99870.69
2023-03-16T04:13:16.401Z,99876.00
2023-03-16T04:14:18.389Z,99872.09
2023-03-16T04:15:20.311Z,99870.69
2023-03-16T04:16:22.849Z,99878.37
2023-03-16T04:17:26.836Z,99874.81
2023-03-16T04:18:42.735Z,99878.78
2023-03-16T04:19:44.865Z,99880.25
2023-03-16T04:20:46.851Z,99883.03
2023-03-16T04:21:50.036Z,99882.47
2023-03-16T04:22:58.492Z,99885.13
2023-03-16T04:24:04.784Z,99881.88
2023-03-16T04:25:07.552Z,99885.34
2023-03-16T04:26:12.108Z,99883.22
2023-03-16T04:27:16.338Z,99888.06
2023-03-16T04:28:18.970Z,99880.56
2023-03-16T04:29:21.558Z,99886.66
2023-03-16T04:30:23.562Z,99891.72
2023-03-16T04:31:26.359Z,99893.63
2023-03-16T04:32:28.371Z,99894.16
2023-03-16T04:33:32.363Z,99899.53
2023-03-16T04:34:34.785Z,99900.84
2023-03-16T04:35:37.255Z,99899.53
2023-03-16T04:36:39.712Z,99895.84
2023-03-16T04:37:41.613Z,99901.50
2023-03-16T04:38:43.867Z,99899.94
2023-03-16T04:39:45.951Z,99906.00
2023-03-16T04:40:48.748Z,99902.44
2023-03-16T04:41:51.520Z,99896.00
2023-03-16T04:42:54.081Z,99903.41
2023-03-16T04:43:57.753Z,99910.28
2023-03-16T04:45:00.012Z,99908.13
2023-03-16T04:46:03.956Z,99905.53
2023-03-16T04:47:06.425Z,99910.06
2023-03-16T04:48:09.959Z,99913.06
2023-03-16T04:49:12.510Z,99909.41
2023-03-16T04:50:14.956Z,99908.91
2023-03-16T04:51:17.573Z,99908.53
2023-03-16T04:52:20.041Z,99917.37
2023-03-16T04:53:22.616Z,99919.28
2023-03-16T04:54:26.510Z,99921.75
2023-03-16T04:55:28.814Z,99915.53
2023-03-16T04:56:31.089Z,99916.44
2023-03-16T04:57:35.040Z,99920.25
2023-03-16T04:58:37.239Z,99922.09
2023-03-16T04:59:40.581Z,99920.47
2023-03-16T05:00:43.424Z,99924.78
2023-03-16T05:01:46.176Z,99919.88
2023-03-16T05:02:49.304Z,99922.06
2023-03-16T05:03:52.996Z,99919.88
2023-03-16T05:04:55.501Z,99923.38
2023-03-16T05:05:57.539Z,99920.69
2023-03-16T05:06:59.973Z,99927.00
2023-03-16T05:08:02.395Z,99923.84
2023-03-16T05:09:06.174Z,99926.63
2023-03-16T05:10:11.151Z,99920.62
2023-03-16T05:11:13.619Z,99924.22
2023-03-16T05:12:17.345Z,99936.53
2023-03-16T05:13:19.633Z,99930.53
2023-03-16T05:14:21.940Z,99933.59
2023-03-16T05:15:25.001Z,99932.78
2023-03-16T05:16:29.827Z,99931.28
2023-03-16T05:17:32.534Z,99930.91
2023-03-16T05:18:34.640Z,99936.53
2023-03-16T05:19:36.666Z,99933.25
2023-03-16T05:20:39.112Z,99942.91
2023-03-16T05:21:41.118Z,99937.00
2023-03-16T05:22:45.475Z,99935.34
2023-03-16T05:23:47.701Z,99940.59
2023-03-16T05:24:49.690Z,99936.69
2023-03-16T05:25:52.164Z,99935.19
2023-03-16T05:26:54.461Z,99939.50
2023-03-16T05:27:57.627Z,99938.91
2023-03-16T05:29:01.355Z,99942.88
2023-03-16T05:30:04.798Z,99936.44
2023-03-16T05:31:07.364Z,99943.50
2023-03-16T05:32:10.656Z,99937.63
2023-03-16T05:33:13.129Z,99942.78
2023-03-16T05:34:15.354Z,99943.53
2023-03-16T05:35:17.736Z,99945.66
2023-03-16T05:36:20.949Z,99940.53
2023-03-16T05:37:24.242Z,99953.69
2023-03-16T05:38:27.630Z,99950.66
2023-03-16T05:39:31.010Z,99954.97
2023-03-16T05:40:33.357Z,99948.63
2023-03-16T05:41:36.250Z,99957.78
2023-03-16T05:42:38.488Z,99952.91
2023-03-16T05:43:40.900Z,99959.25
2023-03-16T05:44:44.922Z,99958.28
2023-03-16T05:45:47.774Z,99965.81
2023-03-16T05:46:50.720Z,99957.22
2023-03-16T05:47:53.398Z,99957.94
2023-03-16T05:48:55.667Z,99960.84
2023-03-16T05:49:58.170Z,99964.91
2023-03-16T05:51:01.435Z,99958.22
2023-03-16T05:52:04.256Z,99957.44
2023-03-16T05:53:09.017Z,99947.56
2023-03-16T05:54:11.086Z,99957.91
2023-03-16T05:55:15.781Z,99952.59
2023-03-16T05:56:18.154Z,99955.28
2023-03-16T05:57:20.550Z,99958.06
2023-03-16T05:58:22.878Z,99954.34
2023-03-16T05:59:25.104Z,99964.41
2023-03-16T06:00:29.954Z,99963.06
2023-03-16T06:01:34.203Z,99970.84
2023-03-16T06:02:37.728Z,99965.66
2023-03-16T06:03:40.165Z,99963.72
2023-03-16T06:04:42.440Z,99972.50
2023-03-16T06:05:44.776Z,99974.53
2023-03-16T06:06:47.023Z,99970.53
2023-03-16T06:07:50.268Z,99969.87
2023-03-16T06:08:52.988Z,99975.84
2023-03-16T06:09:55.527Z,99969.28
2023-03-16T06:10:57.497Z,99965.91
2023-03-16T06:11:59.726Z,99973.09
2023-03-16T06:13:02.033Z,99970.59
2023-03-16T06:14:04.098Z,99970.44
2023-03-16T06:15:07.948Z,99974.97
2023-03-16T06:16:13.769Z,99972.56
2023-03-16T06:17:15.984Z,99974.38
2023-03-16T06:18:18.148Z,99978.44
2023-03-16T06:19:20.348Z,99984.56
2023-03-16T06:20:22.918Z,99978.37
2023-03-16T06:21:25.000Z,99983.41
2023-03-16T06:22:28.208Z,99980.06
2023-03-16T06:23:30.159Z,99974.56
2023-03-16T06:24:32.854Z,99982.06
2023-03-16T06:25:34.758Z,99982.12
2023-03-16T06:26:37.957Z,99988.34
2023-03-16T06:27:42.496Z,99986.16
2023-03-16T06:28:44.764Z,99988.63
2023-03-16T06:29:47.651Z,99996.31
2023-03-16T06:30:54.045Z,99993.22
2023-03-16T06:31:57.132Z,100006.69
2023-03-16T06:33:00.364Z,99994.75
2023-03-16T06:34:02.764Z,99997.75
2023-03-16T06:35:06.060Z,100000.28
2023-03-16T06:36:08.833Z,100001.88
2023-03-16T06:37:11.174Z,100007.16
2023-03-16T06:38:14.322Z,100016.72
2023-03-16T06:39:17.188Z,100013.50
2023-03-16T06:40:20.503Z,100014.00
2023-03-16T06:41:22.680Z,100009.63
2023-03-16T06:42:24.608Z,100008.69
2023-03-16T06:43:26.878Z,100006.78
2023-03-16T06:44:29.219Z,100003.25
2023-03-16T06:45:31.510Z,100011.56
2023-03-16T06:46:33.527Z,100017.09
2023-03-16T06:47:35.849Z,100008.41
2023-03-16T06:48:38.781Z,100022.31
2023-03-16T06:49:40.798Z,100014.28
2023-03-16T06:50:46.654Z,100014.47
2023-03-16T06:51:54.144Z,100022.06
2023-03-16T06:52:57.416Z,100017.63
2023-03-16T06:54:00.080Z,100023.06
2023-03-16T06:55:02.130Z,100018.47
2023-03-16T06:56:05.430Z,100027.75
2023-03-16T06:57:08.745Z,100021.47
2023-03-16T06:58:11.786Z,100022.88
2023-03-16T06:59:14.088Z,100025.06
2023-03-16T07:00:16.428Z,100022.50
2023-03-16T07:01:18.428Z,100028.91
2023-03-16T07:02:22.397Z,100032.72
2023-03-16T07:03:24.520Z,100022.88
2023-03-16T07:04:27.985Z,100030.16
2023-03-16T07:05:30.234Z,100029.75
2023-03-16T07:06:32.960Z,100037.75
2023-03-16T07:07:34.918Z,100039.34
2023-03-16T07:08:36.908Z,100038.16
2023-03-16T07:09:41.645Z,100042.19
2023-03-16T07:10:44.050Z,100047.22
2023-03-16T07:11:45.894Z,100042.59
2023-03-16T07:12:47.837Z,100046.63
2023-03-16T07:13:49.799Z,100042.38
2023-03-16T07:14:54.238Z,100049.41
2023-03-16T07:15:56.832Z,100040.53
2023-03-16T07:16:58.933Z,100040.53
2023-03-16T07:18:01.190Z,100045.16
2023-03-16T07:19:03.703Z,100046.25
2023-03-16T07:20:10.289Z,100040.00
2023-03-16T07:21:12.331Z,100049.72
2023-03-16T07:22:14.571Z,100042.00
2023-03-16T07:23:16.573Z,100042.91
2023-03-16T07:24:18.774Z,100046.59
2023-03-16T07:25:21.415Z,100050.25
2023-03-16T07:26:23.846Z,100045.97
2023-03-16T07:27:26.315Z,100048.94
2023-03-16T07:28:29.700Z,100043.72
2023-03-16T07:29:34.230Z,100058.25
2023-03-16T07:30:38.153Z,100051.38
2023-03-16T07:31:40.528Z,100056.47
2023-03-16T07:32:43.340Z,100062.06
2023-03-16T07:33:45.536Z,100057.56
2023-03-16T07:34:48.350Z,100065.06
2023-03-16T07:35:52.061Z,100060.69
2023-03-16T07:36:54.036Z,100066.56
2023-03-16T07:37:56.352Z,100076.53
2023-03-16T07:38:58.936Z,100069.47
2023-03-16T07:40:01.280Z,100071.25
2023-03-16T07:41:08.573Z,100072.22
2023-03-16T07:42:12.782Z,100066.06
2023-03-16T07:43:19.361Z,100075.91
2023-03-16T07:44:25.176Z,100071.13
2023-03-16T07:45:29.488Z,100071.97
2023-03-16T07:46:32.773Z,100070.25
2023-03-16T07:47:35.506Z,100078.09
2023-03-16T07:48:43.957Z,100073.97
2023-03-16T07:49:46.670Z,100073.03
2023-03-16T07:50:49.416Z,100077.47
2023-03-16T07:51:51.859Z,100071.59
2023-03-16T07:52:54.468Z,100081.09
2023-03-16T07:53:56.567Z,100070.03
2023-03-16T07:54:59.166Z,100076.88
2023-03-16T07:56:01.656Z,100079.03
2023-03-16T07:57:06.401Z,100086.84
2023-03-16T07:58:11.173Z,100094.87
2023-03-16T07:59:13.354Z,100081.19
2023-03-16T08:00:16.718Z,100087.22
2023-03-16T08:01:19.666Z,100081.16
2023-03-16T08:02:23.297Z,100080.22
2023-03-16T08:03:30.148Z,100089.00
2023-03-16T08:04:32.430Z,100087.50
2023-03-16T08:05:34.714Z,100089.69
2023-03-16T08:06:37.102Z,100087.22
2023-03-16T08:07:39.058Z,100090.94
2023-03-16T08:08:43.094Z,100088.78
2023-03-16T08:09:45.495Z,100087.25
2023-03-16T08:10:52.646Z,100095.16
2023-03-16T08:11:55.355Z,100091.91
2023-03-16T08:12:57.508Z,100096.50
2023-03-16T08:13:59.586Z,100093.34
2023-03-16T08:15:03.082Z,100093.94
2023-03-16T08:16:10.414Z,100094.44
2023-03-16T08:17:13.387Z,100095.06
2023-03-16T08:18:15.620Z,100103.03
2023-03-16T08:19:20.269Z,100099.31
2023-03-16T08:20:22.574Z,100096.25
2023-03-16T08:21:24.994Z,100095.75
2023-03-16T08:22:28.585Z,100103.28
2023-03-16T08:23:30.726Z,100100.06
2023-03-16T08:24:33.239Z,100106.00
2023-03-16T08:25:35.854Z,100096.38
2023-03-16T08:26:39.568Z,100095.91
2023-03-16T08:27:42.966Z,100105.22
2023-03-16T08:28:46.465Z,100108.91
2023-03-16T08:29:52.444Z,100094.19
2023-03-16T08:30:55.606Z,100098.72
2023-03-16T08:31:58.357Z,100103.59
2023-03-16T08:33:03.258Z,100095.34
2023-03-16T08:34:05.506Z,100092.19
2023-03-16T08:35:14.290Z,100101.78
2023-03-16T08:36:18.011Z,100102.41
2023-03-16T08:37:22.118Z,100105.09
2023-03-16T08:38:27.089Z,100099.56
2023-03-16T08:39:29.612Z,100092.63
2023-03-16T08:40:34.904Z,100104.50
2023-03-16T08:41:37.817Z,100103.75
2023-03-16T08:42:41.534Z,100096.53
2023-03-16T08:43:44.767Z,100110.25
2023-03-16T08:44:51.032Z,100105.34
2023-03-16T08:45:53.951Z,100105.69
2023-03-16T08:46:56.856Z,100104.44
2023-03-16T08:47:59.818Z,100103.03
2023-03-16T08:49:29.409Z,100110.34
2023-03-16T08:50:33.647Z,100110.34
2023-03-16T08:51:35.728Z,100101.00
2023-03-16T08:52:37.659Z,100102.59
2023-03-16T08:53:39.590Z,100109.53
2023-03-16T08:54:49.707Z,100105.69
2023-03-16T08:56:05.034Z,100105.31
2023-03-16T08:57:07.035Z,100111.84
2023-03-16T08:58:10.782Z,100104.28
2023-03-16T08:59:23.610Z,100107.19
2023-03-16T09:00:31.207Z,100106.94
2023-03-16T09:01:34.990Z,100105.72
2023-03-16T09:02:38.740Z,100104.63
2023-03-16T09:03:42.326Z,100115.00
2023-03-16T09:04:44.415Z,100106.81
2023-03-16T09:05:46.966Z,100108.78
2023-03-16T09:07:05.862Z,100114.31
2023-03-16T09:08:10.151Z,100107.31
2023-03-16T09:09:12.134Z,100124.13
2023-03-16T09:10:16.353Z,100127.69
2023-03-16T09:11:19.869Z,100123.94
2023-03-16T09:12:23.472Z,100120.75
2023-03-16T09:13:26.009Z,100123.53
2023-03-16T09:14:28.013Z,100119.25
2023-03-16T09:15:30.001Z,100119.50
2023-03-16T09:16:32.020Z,100123.91
2023-03-16T09:17:34.732Z,100128.59
2023-03-16T09:18:36.764Z,100118.75
2023-03-16T09:19:57.709Z,100121.03
2023-03-16T09:21:02.508Z,100117.16
2023-03-16T09:22:04.380Z,100128.00
2023-03-16T09:23:06.557Z,100121.28
2023-03-16T09:24:08.972Z,100126.06
2023-03-16T09:25:11.383Z,100117.31
2023-03-16T09:26:14.871Z,100116.59
2023-03-16T09:27:17.919Z,100120.59
2023-03-16T09:28:22.075Z,100119.66
2023-03-16T09:29:24.588Z,100121.84
2023-03-16T09:30:26.881Z,100119.09
2023-03-16T09:31:28.988Z,100117.12
2023-03-16T09:32:31.174Z,100121.16
2023-03-16T09:33:34.381Z,100119.91
2023-03-16T09:34:36.256Z,100116.00
2023-03-16T09:35:38.316Z,100123.00
2023-03-16T09:36:40.906Z,100117.56
2023-03-16T09:38:04.372Z,100123.53
2023-03-16T09:39:04.986Z,100128.44
2023-03-16T09:40:12.012Z,100122.37
2023-03-16T09:41:39.139Z,100127.12
2023-03-16T09:42:50.202Z,100124.31
2023-03-16T09:44:16.427Z,100122.63
2023-03-16T09:45:33.021Z,100130.88
2023-03-16T09:46:43.693Z,100123.44
2023-03-16T09:47:49.674Z,100124.97
2023-03-16T09:48:52.234Z,100128.72
2023-03-16T09:50:02.322Z,100127.19
2023-03-16T09:51:08.501Z,100133.47
2023-03-16T09:52:34.071Z,100127.94
2023-03-16T09:53:39.341Z,100134.38
2023-03-16T09:55:00.054Z,100137.97
2023-03-16T09:56:10.057Z,100128.09
2023-03-16T09:57:26.066Z,100128.22
2023-03-16T09:58:28.399Z,100128.31
2023-03-16T09:59:30.374Z,100137.97
2023-03-16T10:00:39.950Z,100136.69
2023-03-16T10:01:53.850Z,100135.63
2023-03-16T10:03:08.221Z,100139.25
2023-03-16T10:04:29.354Z,100139.34
2023-03-16T10:05:32.933Z,100143.22
2023-03-16T10:06:44.189Z,100136.03
2023-03-16T10:08:02.004Z,100136.94
2023-03-16T10:09:17.104Z,100138.66
2023-03-16T10:10:42.178Z,100136.16
2023-03-16T10:11:52.850Z,100138.25
2023-03-16T10:13:00.234Z,100137.84
2023-03-16T10:14:02.559Z,100140.69
2023-03-16T10:15:13.587Z,100143.69
2023-03-16T10:16:41.151Z,100132.69
2023-03-16T10:18:07.152Z,100138.03
2023-03-16T10:19:23.365Z,100137.19
2023-03-16T10:20:28.158Z,100142.25
2023-03-16T10:21:34.310Z,100132.72
2023-03-16T10:22:42.801Z,100141.06
2023-03-16T10:23:47.154Z,100142.16
2023-03-16T10:25:17.088Z,100135.56
2023-03-16T10:26:26.207Z,100148.53
2023-03-16T10:27:33.658Z,100140.81
2023-03-16T10:28:37.632Z,100145.31
2023-03-16T10:29:39.563Z,100152.53
2023-03-16T10:30:43.011Z,100141.78
2023-03-16T10:31:45.911Z,100142.22
2023-03-16T10:32:48.358Z,100153.34
2023-03-16T10:34:02.604Z,100148.28
2023-03-16T10:35:20.974Z,100145.75
2023-03-16T10:36:33.588Z,100152.94
2023-03-16T10:37:35.916Z,100150.31
2023-03-16T10:38:40.896Z,100146.53
2023-03-16T10:39:45.772Z,100146.97
2023-03-16T10:40:47.729Z,100151.16
2023-03-16T10:41:57.947Z,100149.31
2023-03-16T10:43:26.041Z,100143.47
2023-03-16T10:44:30.041Z,100144.81
2023-03-16T10:45:35.923Z,100140.38
2023-03-16T10:46:48.645Z,100142.22
2023-03-16T10:47:51.251Z,100136.47
2023-03-16T10:48:54.866Z,100138.34
2023-03-16T10:49:56.832Z,100137.38
2023-03-16T10:51:03.949Z,100135.53
2023-03-16T10:52:44.230Z,100143.81
2023-03-16T10:53:47.740Z,100132.31
2023-03-16T10:54:58.321Z,100141.13
2023-03-16T10:56:11.754Z,100132.78
2023-03-16T10:57:22.785Z,100141.75
2023-03-16T10:58:33.806Z,100142.22
2023-03-16T10:59:37.119Z,100137.56
2023-03-16T11:00:43.502Z,100139.13
2023-03-16T11:01:50.019Z,100141.00
2023-03-16T11:02:57.107Z,100147.69
2023-03-16T11:03:59.130Z,100142.63
2023-03-16T11:05:19.369Z,100136.47
2023-03-16T11:06:30.698Z,100135.78
2023-03-16T11:07:34.760Z,100142.53
2023-03-16T11:08:38.954Z,100144.38
2023-03-16T11:09:40.904Z,100141.53
2023-03-16T11:10:55.600Z,100140.69
2023-03-16T11:11:58.181Z,100141.16
2023-03-16T11:13:11.373Z,100138.66
2023-03-16T11:14:15.559Z,100135.94
2023-03-16T11:15:25.764Z,100133.50
2023-03-16T11:16:39.576Z,100131.44
2023-03-16T11:17:49.776Z,100131.00
2023-03-16T11:19:09.352Z,100133.44
2023-03-16T11:20:19.229Z,100135.47
2023-03-16T11:21:38.800Z,100134.63
2023-03-16T11:22:48.482Z,100132.78
2023-03-16T11:23:55.160Z,100136.22
2023-03-16T11:25:04.291Z,100131.84
2023-03-16T11:26:17.626Z,100136.31
2023-03-16T11:27:34.023Z,100134.63
2023-03-16T11:28:48.721Z,100131.22
2023-03-16T11:30:09.800Z,100133.78
2023-03-16T11:31:14.858Z,100129.31
2023-03-16T11:32:22.505Z,100131.81
2023-03-16T11:33:27.349Z,100128.91
2023-03-16T11:34:31.295Z,100129.56
2023-03-16T11:35:38.423Z,100129.06
2023-03-16T11:36:51.601Z,100127.53
2023-03-16T11:38:31.468Z,100123.75
2023-03-16T11:39:42.984Z,100124.47
2023-03-16T11:41:01.553Z,100119.91
2023-03-16T11:42:19.001Z,100122.84
2023-03-16T11:43:39.293Z,100118.63
2023-03-16T11:44:50.680Z,100115.63
2023-03-16T11:45:58.447Z,100120.28
2023-03-16T11:47:01.011Z,100115.13
2023-03-16T11:48:18.112Z,100113.12
2023-03-16T11:49:29.164Z,100121.69
2023-03-16T11:50:44.723Z,100123.34
2023-03-16T11:52:05.224Z,100123.62
2023-03-16T11:53:24.643Z,100121.56
2023-03-16T11:54:32.716Z,100111.91
2023-03-16T11:56:13.052Z,100111.13
2023-03-16T11:57:52.584Z,100111.37
2023-03-16T11:59:00.740Z,100113.22
2023-03-16T12:00:17.152Z,100110.66
2023-03-16T12:01:25.763Z,100109.66
2023-03-16T12:02:51.319Z,100110.53
2023-03-16T12:04:14.920Z,100108.75
2023-03-16T12:05:16.978Z,100108.66
2023-03-16T12:06:32.454Z,100104.22
2023-03-16T12:08:19.044Z,100108.75
2023-03-16T12:09:26.691Z,100113.50
2023-03-16T12:10:38.367Z,100113.19
2023-03-16T12:11:55.100Z,100114.44
2023-03-16T12:13:20.096Z,100118.59
2023-03-16T12:14:31.351Z,100108.06
2023-03-16T12:15:40.208Z,100107.63
2023-03-16T12:16:51.445Z,100109.50
2023-03-16T12:17:57.596Z,100110.19
2023-03-16T12:19:03.859Z,100109.22
2023-03-16T12:20:20.056Z,100107.03
2023-03-16T12:21:28.159Z,100111.16
2023-03-16T12:22:37.388Z,100101.87
2023-03-16T12:23:49.641Z,100100.34
2023-03-16T12:24:51.603Z,100093.91
2023-03-16T12:25:53.684Z,100094.06
2023-03-16T12:26:58.402Z,100100.12
2023-03-16T12:28:05.482Z,100099.03
2023-03-16T12:29:48.411Z,100100.22
2023-03-16T12:30:50.602Z,100104.06
2023-03-16T12:31:58.175Z,100104.00
2023-03-16T12:33:27.111Z,100106.56
2023-03-16T12:34:50.261Z,100090.69
2023-03-16T12:35:56.577Z,100096.62
2023-03-16T12:37:19.832Z,100097.50
2023-03-16T12:38:28.619Z,100101.59
2023-03-16T12:39:43.289Z,100099.81
2023-03-16T12:41:26.349Z,100099.22